Arethusa — 9HJR9 — position and weather

sailwx.info

Track history (hours):
 
Tides and Currents Weather Stations Pressure Air Temp Water Temp Dewpoint Dewpoint Depression Visibility Wind Speed Wind Dir Waves Ship Positions

Arethusa

Last reported at 2016-May-30 21:31 UTC. Time now 2016-May-31 02:09 UTC.
Position N 42°48' E 010°20'.

Length 60 m; draft 3 m.

Type: Passenger vessel. MMSI: 249069000.

Date/timePositionNaut miles runAvg speedWind from/ knotsBaromVisibWave heightAir tempDewpointWater temp
2016-May-30 21:31N 42°48' E 010°20'21 0.9
2016-May-29 20:33N 43°08' E 010°10'1010.1
2016-May-29 19:34N 43°18' E 010°10'1211.7
2016-May-29 18:33N 43°30' E 010°09'1111.4
2016-May-29 17:33N 43°41' E 010°06'1111.3
2016-May-29 16:33N 43°52' E 010°04'10 8.9
2016-May-29 15:26N 44°02' E 010°02'0 0.0
2016-May-29 14:26N 44°02' E 010°02'0 0.0
2016-May-29 13:26N 44°02' E 010°02'0 0.0
2016-May-29 12:26N 44°02' E 010°02'0 0.0
2016-May-29 11:32N 44°02' E 010°02'0 0.0
2016-May-29 10:32N 44°02' E 010°02'5 5.5
2016-May-29 09:34N 44°00' E 009°55'4 3.9
2016-May-29 08:31N 44°03' E 009°51'0 0.0
2016-May-29 07:31N 44°03' E 009°51'0 0.0
2016-May-29 06:31N 44°03' E 009°51'0 0.0
2016-May-29 05:28N 44°03' E 009°51'0 0.0
2016-May-29 04:31N 44°03' E 009°51'0 0.0
2016-May-29 03:31N 44°03' E 009°51'0 0.0
2016-May-29 02:31N 44°03' E 009°51'0 0.0
2016-May-29 01:31N 44°03' E 009°51'0 0.0
2016-May-29 00:31N 44°03' E 009°51'0 0.0
2016-May-28 23:28N 44°03' E 009°51'0 0.0
2016-May-28 22:31N 44°03' E 009°51'0 0.0
2016-May-28 21:31N 44°03' E 009°51'0 0.0
2016-May-28 20:31N 44°03' E 009°51'0 0.0
2016-May-28 19:31N 44°03' E 009°51'0 0.0
2016-May-28 18:31N 44°03' E 009°51'0 0.0
2016-May-28 17:31N 44°03' E 009°51'0 0.0
2016-May-28 16:31N 44°03' E 009°51'0 0.0
2016-May-28 15:31N 44°03' E 009°51'0 0.0
2016-May-28 14:31N 44°03' E 009°51'0 0.0
2016-May-28 13:31N 44°03' E 009°51'0 0.0
2016-May-28 12:31N 44°03' E 009°51'0 0.0
2016-May-28 11:31N 44°03' E 009°51'0 0.0
2016-May-28 10:31N 44°03' E 009°51'0 0.0
2016-May-28 09:31N 44°03' E 009°51'0 0.0
2016-May-28 08:31N 44°03' E 009°51'0 0.0
2016-May-28 07:31N 44°03' E 009°51'0 0.0
2016-May-28 06:31N 44°03' E 009°51'0 0.0
2016-May-28 05:31N 44°03' E 009°51'0 0.0
2016-May-28 04:31N 44°03' E 009°51'0 0.0
2016-May-28 03:31N 44°03' E 009°51'0 0.0
2016-May-28 02:31N 44°03' E 009°51'0 0.0
2016-May-28 01:31N 44°03' E 009°51'0 0.0
2016-May-28 00:31N 44°03' E 009°51'0 0.0
2016-May-27 23:31N 44°03' E 009°51'0 0.0
2016-May-27 22:31N 44°03' E 009°51'0 0.0
2016-May-27 21:33N 44°03' E 009°51'0 0.0
2016-May-27 20:33N 44°03' E 009°51'3 3.2
2016-May-27 19:33N 44°01' E 009°55'9 9.2
2016-May-27 18:33N 44°01' E 009°42'1211.6
2016-May-27 17:33N 44°09' E 009°30'13 1.0
2016-May-27 04:33N 44°15' E 009°14'1111.1
2016-May-27 03:33N 44°11' E 008°60'1111.2
2016-May-27 02:33N 44°05' E 008°46'6510.7
2016-May-26 20:32N 43°40' E 007°23'5 4.6
2016-May-26 19:29N 43°42' E 007°17'0 0.0
2016-May-26 18:29N 43°42' E 007°17'0 0.0
2016-May-26 17:29N 43°42' E 007°17'0 0.0
2016-May-26 16:29N 43°42' E 007°17'0 0.0
2016-May-26 15:23N 43°42' E 007°17'0 0.0
2016-May-26 14:17N 43°42' E 007°17'0 0.0
2016-May-26 13:29N 43°42' E 007°17'0 0.0
2016-May-26 12:29N 43°42' E 007°17'0 0.0
2016-May-26 11:29N 43°42' E 007°17'0 0.0
2016-May-26 10:29N 43°42' E 007°17'0 0.0
2016-May-26 09:29N 43°42' E 007°17'0 0.0
2016-May-26 08:29N 43°42' E 007°17'0 0.0
2016-May-26 07:29N 43°42' E 007°17'0 0.0
2016-May-26 06:29N 43°42' E 007°17'0 0.0
2016-May-26 05:29N 43°42' E 007°17'0 0.0
2016-May-26 04:29N 43°42' E 007°17'0 0.0
2016-May-26 03:23N 43°42' E 007°17'0 0.0
2016-May-26 02:29N 43°42' E 007°17'0 0.0
2016-May-26 01:05N 43°42' E 007°17'0 0.0
2016-May-26 00:29N 43°42' E 007°17'0 0.0
2016-May-25 23:29N 43°42' E 007°17'0 0.0
2016-May-25 22:29N 43°42' E 007°17'0 0.0
2016-May-25 21:29N 43°42' E 007°17'0 0.0
2016-May-25 20:29N 43°42' E 007°17'0 0.0
2016-May-25 19:29N 43°42' E 007°17'0 0.0
2016-May-25 18:29N 43°42' E 007°17'0 0.0
2016-May-25 17:29N 43°42' E 007°17'0 0.0
2016-May-25 16:23N 43°42' E 007°17'0 0.0
2016-May-25 15:29N 43°42' E 007°17'0 0.0
2016-May-25 14:29N 43°42' E 007°17'0 0.0
2016-May-25 13:29N 43°42' E 007°17'0 0.0
2016-May-25 12:29N 43°42' E 007°17'0 0.0
2016-May-25 11:29N 43°42' E 007°17'0 0.0
2016-May-25 10:29N 43°42' E 007°17'0 0.0
2016-May-25 09:29N 43°42' E 007°17'0 0.0
2016-May-25 08:29N 43°42' E 007°17'0 0.0
2016-May-25 07:23N 43°42' E 007°17'0 0.0
2016-May-25 06:17N 43°42' E 007°17'0 0.0
2016-May-25 05:29N 43°42' E 007°17'0 0.0
2016-May-25 04:29N 43°42' E 007°17'0 0.0
2016-May-25 03:29N 43°42' E 007°17'0 0.0
2016-May-25 02:29N 43°42' E 007°17'0 0.0
2016-May-25 01:29N 43°42' E 007°17'0 0.0
2016-May-25 00:29N 43°42' E 007°17'0 0.0
2016-May-24 23:29N 43°42' E 007°17'0 0.0
2016-May-24 22:29N 43°42' E 007°17'0 0.0
2016-May-24 21:29N 43°42' E 007°17'0 0.0
2016-May-24 20:17N 43°42' E 007°17'0 0.0
2016-May-24 19:29N 43°42' E 007°17'0 0.0
2016-May-24 18:23N 43°42' E 007°17'0 0.0
2016-May-24 17:23N 43°42' E 007°17'0 0.0
2016-May-24 16:29N 43°42' E 007°17'0 0.0
2016-May-24 15:23N 43°42' E 007°17'0 0.0
2016-May-24 14:05N 43°42' E 007°17'0 0.0
2016-May-24 13:23N 43°42' E 007°17'0 0.0
2016-May-24 12:33N 43°42' E 007°17'0 0.0
2016-May-24 11:33N 43°42' E 007°17'0 0.0
2016-May-24 10:33N 43°42' E 007°17'0 0.0
2016-May-24 09:33N 43°42' E 007°17'0 0.0
2016-May-24 08:33N 43°42' E 007°17'0 0.0
2016-May-24 07:33N 43°42' E 007°17'0 0.0
2016-May-24 06:33N 43°42' E 007°17'0 0.0
2016-May-24 05:34N 43°42' E 007°17'39 8.8
2016-May-24 01:04N 43°53' E 008°09'5 9.1
2016-May-24 00:32N 43°56' E 008°15'20 9.5
2016-May-23 22:29N 44°11' E 008°32'1011.1
2016-May-23 21:33N 44°15' E 008°46'1111.5
2016-May-23 20:33N 44°16' E 009°01'13 0.8
2016-May-23 04:21N 44°16' E 009°19'810.0
2016-May-23 03:33N 44°11' E 009°27'1010.2
2016-May-23 02:33N 44°04' E 009°38'10 9.6
2016-May-23 01:33N 44°01' E 009°50'2 2.1
2016-May-23 00:31N 44°03' E 009°51'0 0.0
2016-May-22 23:31N 44°03' E 009°51'0 0.0
2016-May-22 22:31N 44°03' E 009°51'0 0.0
2016-May-22 21:31N 44°03' E 009°51'0 0.0
2016-May-22 20:31N 44°03' E 009°51'0 0.0
2016-May-22 19:31N 44°03' E 009°51'0 0.0
2016-May-22 18:31N 44°03' E 009°51'0 0.0
2016-May-22 17:31N 44°03' E 009°51'0 0.0
2016-May-22 16:31N 44°03' E 009°51'0 0.0
2016-May-22 15:28N 44°03' E 009°51'0 0.0
2016-May-22 14:31N 44°03' E 009°51'0 0.0
2016-May-22 13:28N 44°03' E 009°51'0 0.0
2016-May-22 12:31N 44°03' E 009°51'0 0.0
2016-May-22 11:31N 44°03' E 009°51'0 0.0
2016-May-22 10:31N 44°03' E 009°51'0 0.0
2016-May-22 09:31N 44°03' E 009°51'0 0.0
2016-May-22 08:31N 44°03' E 009°51'0 0.0
2016-May-22 07:28N 44°03' E 009°51'0 0.0
2016-May-22 06:28N 44°03' E 009°51'0 0.0
2016-May-22 05:31N 44°03' E 009°51'0 0.0
2016-May-22 04:31N 44°03' E 009°51'0 0.0
2016-May-22 03:31N 44°03' E 009°51'0 0.0
2016-May-22 02:31N 44°03' E 009°51'0 0.0
2016-May-22 01:31N 44°03' E 009°51'0 0.0
2016-May-22 00:31N 44°03' E 009°51'0 0.0
2016-May-21 23:31N 44°03' E 009°51'0 0.0
2016-May-21 22:31N 44°03' E 009°51'0 0.0
2016-May-21 21:31N 44°03' E 009°51'0 0.0
2016-May-21 20:31N 44°03' E 009°51'0 0.0
2016-May-21 19:31N 44°03' E 009°51'0 0.0
2016-May-21 18:31N 44°03' E 009°51'0 0.0
2016-May-21 17:33N 44°03' E 009°51'0 0.0
2016-May-21 16:33N 44°03' E 009°51'0 0.0
2016-May-21 15:34N 44°03' E 009°51'0 0.0
2016-May-21 14:33N 44°03' E 009°51'0 0.0
2016-May-21 13:33N 44°03' E 009°51'0 0.0
2016-May-21 12:33N 44°03' E 009°51'6 6.3
2016-May-21 11:33N 44°00' E 009°58'3 3.2
2016-May-21 10:33N 44°02' E 010°02'0 0.0
2016-May-21 09:34N 44°02' E 010°02'0 0.0
2016-May-21 08:33N 44°02' E 010°02'0 0.0
2016-May-21 07:33N 44°02' E 010°02'0 0.0
2016-May-21 06:33N 44°02' E 010°02'1 0.6
2016-May-21 05:34N 44°02' E 010°03'1010.4
2016-May-21 04:33N 43°52' E 009°58'9 9.3
2016-May-21 03:33N 43°43' E 009°53'8 8.3
2016-May-21 02:33N 43°35' E 009°49'8 8.5
2016-May-21 01:34N 43°27' E 009°45'9 8.6
2016-May-21 00:33N 43°19' E 009°42'9 9.0
2016-May-20 23:33N 43°10' E 009°39'  
Track history (hours):
 
Tides and Currents Weather Stations Pressure Air Temp Water Temp Dewpoint Dewpoint Depression Visibility Wind Speed Wind Dir Waves Ship Positions

Arethusa

Last reported at 2016-May-30 21:31 UTC. Time now 2016-May-31 02:09 UTC.
Position N 42°48' E 010°20'.

Length 60 m; draft 3 m.

Type: Passenger vessel. MMSI: 249069000.

Date/timePositionNaut miles runAvg speedWind from/ knotsBaromVisibWave heightAir tempDewpointWater temp
2016-May-30 21:31N 42°48' E 010°20'21 0.9
2016-May-29 20:33N 43°08' E 010°10'1010.1
2016-May-29 19:34N 43°18' E 010°10'1211.7
2016-May-29 18:33N 43°30' E 010°09'1111.4
2016-May-29 17:33N 43°41' E 010°06'1111.3
2016-May-29 16:33N 43°52' E 010°04'10 8.9
2016-May-29 15:26N 44°02' E 010°02'0 0.0
2016-May-29 14:26N 44°02' E 010°02'0 0.0
2016-May-29 13:26N 44°02' E 010°02'0 0.0
2016-May-29 12:26N 44°02' E 010°02'0 0.0
2016-May-29 11:32N 44°02' E 010°02'0 0.0
2016-May-29 10:32N 44°02' E 010°02'5 5.5
2016-May-29 09:34N 44°00' E 009°55'4 3.9
2016-May-29 08:31N 44°03' E 009°51'0 0.0
2016-May-29 07:31N 44°03' E 009°51'0 0.0
2016-May-29 06:31N 44°03' E 009°51'0 0.0
2016-May-29 05:28N 44°03' E 009°51'0 0.0
2016-May-29 04:31N 44°03' E 009°51'0 0.0
2016-May-29 03:31N 44°03' E 009°51'0 0.0
2016-May-29 02:31N 44°03' E 009°51'0 0.0
2016-May-29 01:31N 44°03' E 009°51'0 0.0
2016-May-29 00:31N 44°03' E 009°51'0 0.0
2016-May-28 23:28N 44°03' E 009°51'0 0.0
2016-May-28 22:31N 44°03' E 009°51'0 0.0
2016-May-28 21:31N 44°03' E 009°51'0 0.0
2016-May-28 20:31N 44°03' E 009°51'0 0.0
2016-May-28 19:31N 44°03' E 009°51'0 0.0
2016-May-28 18:31N 44°03' E 009°51'0 0.0
2016-May-28 17:31N 44°03' E 009°51'0 0.0
2016-May-28 16:31N 44°03' E 009°51'0 0.0
2016-May-28 15:31N 44°03' E 009°51'0 0.0
2016-May-28 14:31N 44°03' E 009°51'0 0.0
2016-May-28 13:31N 44°03' E 009°51'0 0.0
2016-May-28 12:31N 44°03' E 009°51'0 0.0
2016-May-28 11:31N 44°03' E 009°51'0 0.0
2016-May-28 10:31N 44°03' E 009°51'0 0.0
2016-May-28 09:31N 44°03' E 009°51'0 0.0
2016-May-28 08:31N 44°03' E 009°51'0 0.0
2016-May-28 07:31N 44°03' E 009°51'0 0.0
2016-May-28 06:31N 44°03' E 009°51'0 0.0
2016-May-28 05:31N 44°03' E 009°51'0 0.0
2016-May-28 04:31N 44°03' E 009°51'0 0.0
2016-May-28 03:31N 44°03' E 009°51'0 0.0
2016-May-28 02:31N 44°03' E 009°51'0 0.0
2016-May-28 01:31N 44°03' E 009°51'0 0.0
2016-May-28 00:31N 44°03' E 009°51'0 0.0
2016-May-27 23:31N 44°03' E 009°51'0 0.0
2016-May-27 22:31N 44°03' E 009°51'0 0.0
2016-May-27 21:33N 44°03' E 009°51'0 0.0
2016-May-27 20:33N 44°03' E 009°51'3 3.2
2016-May-27 19:33N 44°01' E 009°55'9 9.2
2016-May-27 18:33N 44°01' E 009°42'1211.6
2016-May-27 17:33N 44°09' E 009°30'13 1.0
2016-May-27 04:33N 44°15' E 009°14'1111.1
2016-May-27 03:33N 44°11' E 008°60'1111.2
2016-May-27 02:33N 44°05' E 008°46'6510.7
2016-May-26 20:32N 43°40' E 007°23'5 4.6
2016-May-26 19:29N 43°42' E 007°17'0 0.0
2016-May-26 18:29N 43°42' E 007°17'0 0.0
2016-May-26 17:29N 43°42' E 007°17'0 0.0
2016-May-26 16:29N 43°42' E 007°17'0 0.0
2016-May-26 15:23N 43°42' E 007°17'0 0.0
2016-May-26 14:17N 43°42' E 007°17'0 0.0
2016-May-26 13:29N 43°42' E 007°17'0 0.0
2016-May-26 12:29N 43°42' E 007°17'0 0.0
2016-May-26 11:29N 43°42' E 007°17'0 0.0
2016-May-26 10:29N 43°42' E 007°17'0 0.0
2016-May-26 09:29N 43°42' E 007°17'0 0.0
2016-May-26 08:29N 43°42' E 007°17'0 0.0
2016-May-26 07:29N 43°42' E 007°17'0 0.0
2016-May-26 06:29N 43°42' E 007°17'0 0.0
2016-May-26 05:29N 43°42' E 007°17'0 0.0
2016-May-26 04:29N 43°42' E 007°17'0 0.0
2016-May-26 03:23N 43°42' E 007°17'0 0.0
2016-May-26 02:29N 43°42' E 007°17'0 0.0
2016-May-26 01:05N 43°42' E 007°17'0 0.0
2016-May-26 00:29N 43°42' E 007°17'0 0.0
2016-May-25 23:29N 43°42' E 007°17'0 0.0
2016-May-25 22:29N 43°42' E 007°17'0 0.0
2016-May-25 21:29N 43°42' E 007°17'0 0.0
2016-May-25 20:29N 43°42' E 007°17'0 0.0
2016-May-25 19:29N 43°42' E 007°17'0 0.0
2016-May-25 18:29N 43°42' E 007°17'0 0.0
2016-May-25 17:29N 43°42' E 007°17'0 0.0
2016-May-25 16:23N 43°42' E 007°17'0 0.0
2016-May-25 15:29N 43°42' E 007°17'0 0.0
2016-May-25 14:29N 43°42' E 007°17'0 0.0
2016-May-25 13:29N 43°42' E 007°17'0 0.0
2016-May-25 12:29N 43°42' E 007°17'0 0.0
2016-May-25 11:29N 43°42' E 007°17'0 0.0
2016-May-25 10:29N 43°42' E 007°17'0 0.0
2016-May-25 09:29N 43°42' E 007°17'0 0.0
2016-May-25 08:29N 43°42' E 007°17'0 0.0
2016-May-25 07:23N 43°42' E 007°17'0 0.0
2016-May-25 06:17N 43°42' E 007°17'0 0.0
2016-May-25 05:29N 43°42' E 007°17'0 0.0
2016-May-25 04:29N 43°42' E 007°17'0 0.0
2016-May-25 03:29N 43°42' E 007°17'0 0.0
2016-May-25 02:29N 43°42' E 007°17'0 0.0
2016-May-25 01:29N 43°42' E 007°17'0 0.0
2016-May-25 00:29N 43°42' E 007°17'0 0.0
2016-May-24 23:29N 43°42' E 007°17'0 0.0
2016-May-24 22:29N 43°42' E 007°17'0 0.0
2016-May-24 21:29N 43°42' E 007°17'0 0.0
2016-May-24 20:17N 43°42' E 007°17'0 0.0
2016-May-24 19:29N 43°42' E 007°17'0 0.0
2016-May-24 18:23N 43°42' E 007°17'0 0.0
2016-May-24 17:23N 43°42' E 007°17'0 0.0
2016-May-24 16:29N 43°42' E 007°17'0 0.0
2016-May-24 15:23N 43°42' E 007°17'0 0.0
2016-May-24 14:05N 43°42' E 007°17'0 0.0
2016-May-24 13:23N 43°42' E 007°17'0 0.0
2016-May-24 12:33N 43°42' E 007°17'0 0.0
2016-May-24 11:33N 43°42' E 007°17'0 0.0
2016-May-24 10:33N 43°42' E 007°17'0 0.0
2016-May-24 09:33N 43°42' E 007°17'0 0.0
2016-May-24 08:33N 43°42' E 007°17'0 0.0
2016-May-24 07:33N 43°42' E 007°17'0 0.0
2016-May-24 06:33N 43°42' E 007°17'0 0.0
2016-May-24 05:34N 43°42' E 007°17'39 8.8
2016-May-24 01:04N 43°53' E 008°09'5 9.1
2016-May-24 00:32N 43°56' E 008°15'20 9.5
2016-May-23 22:29N 44°11' E 008°32'1011.1
2016-May-23 21:33N 44°15' E 008°46'1111.5
2016-May-23 20:33N 44°16' E 009°01'13 0.8
2016-May-23 04:21N 44°16' E 009°19'810.0
2016-May-23 03:33N 44°11' E 009°27'1010.2
2016-May-23 02:33N 44°04' E 009°38'10 9.6
2016-May-23 01:33N 44°01' E 009°50'2 2.1
2016-May-23 00:31N 44°03' E 009°51'0 0.0
2016-May-22 23:31N 44°03' E 009°51'0 0.0
2016-May-22 22:31N 44°03' E 009°51'0 0.0
2016-May-22 21:31N 44°03' E 009°51'0 0.0
2016-May-22 20:31N 44°03' E 009°51'0 0.0
2016-May-22 19:31N 44°03' E 009°51'0 0.0
2016-May-22 18:31N 44°03' E 009°51'0 0.0
2016-May-22 17:31N 44°03' E 009°51'0 0.0
2016-May-22 16:31N 44°03' E 009°51'0 0.0
2016-May-22 15:28N 44°03' E 009°51'0 0.0
2016-May-22 14:31N 44°03' E 009°51'0 0.0
2016-May-22 13:28N 44°03' E 009°51'0 0.0
2016-May-22 12:31N 44°03' E 009°51'0 0.0
2016-May-22 11:31N 44°03' E 009°51'0 0.0
2016-May-22 10:31N 44°03' E 009°51'0 0.0
2016-May-22 09:31N 44°03' E 009°51'0 0.0
2016-May-22 08:31N 44°03' E 009°51'0 0.0
2016-May-22 07:28N 44°03' E 009°51'0 0.0
2016-May-22 06:28N 44°03' E 009°51'0 0.0
2016-May-22 05:31N 44°03' E 009°51'0 0.0
2016-May-22 04:31N 44°03' E 009°51'0 0.0
2016-May-22 03:31N 44°03' E 009°51'0 0.0
2016-May-22 02:31N 44°03' E 009°51'0 0.0
2016-May-22 01:31N 44°03' E 009°51'0 0.0
2016-May-22 00:31N 44°03' E 009°51'0 0.0
2016-May-21 23:31N 44°03' E 009°51'0 0.0
2016-May-21 22:31N 44°03' E 009°51'0 0.0
2016-May-21 21:31N 44°03' E 009°51'0 0.0
2016-May-21 20:31N 44°03' E 009°51'0 0.0
2016-May-21 19:31N 44°03' E 009°51'0 0.0
2016-May-21 18:31N 44°03' E 009°51'0 0.0
2016-May-21 17:33N 44°03' E 009°51'0 0.0
2016-May-21 16:33N 44°03' E 009°51'0 0.0
2016-May-21 15:34N 44°03' E 009°51'0 0.0
2016-May-21 14:33N 44°03' E 009°51'0 0.0
2016-May-21 13:33N 44°03' E 009°51'0 0.0
2016-May-21 12:33N 44°03' E 009°51'6 6.3
2016-May-21 11:33N 44°00' E 009°58'3 3.2
2016-May-21 10:33N 44°02' E 010°02'0 0.0
2016-May-21 09:34N 44°02' E 010°02'0 0.0
2016-May-21 08:33N 44°02' E 010°02'0 0.0
2016-May-21 07:33N 44°02' E 010°02'0 0.0
2016-May-21 06:33N 44°02' E 010°02'1 0.6
2016-May-21 05:34N 44°02' E 010°03'1010.4
2016-May-21 04:33N 43°52' E 009°58'9 9.3
2016-May-21 03:33N 43°43' E 009°53'8 8.3
2016-May-21 02:33N 43°35' E 009°49'8 8.5
2016-May-21 01:34N 43°27' E 009°45'9 8.6
2016-May-21 00:33N 43°19' E 009°42'9 9.0
2016-May-20 23:33N 43°10' E 009°39'  

Dump ship's entire track history